sensor_id;sensor_type;location;lat;lon;timestamp;pressure;altitude;pressure_sealevel;temperature;humidity
79037;BME280;68434;59.896;30.474;2023-07-31T00:00:30;100684.63;;;21.33;55.39
79037;BME280;68434;59.896;30.474;2023-07-31T00:02:59;100697.59;;;21.33;55.55
79037;BME280;68434;59.896;30.474;2023-07-31T00:05:27;100695.06;;;21.31;55.60
79037;BME280;68434;59.896;30.474;2023-07-31T00:07:54;100692.53;;;21.30;55.57
79037;BME280;68434;59.896;30.474;2023-07-31T00:10:22;100693.56;;;21.29;55.63
79037;BME280;68434;59.896;30.474;2023-07-31T00:12:49;100691.91;;;21.28;55.91
79037;BME280;68434;59.896;30.474;2023-07-31T00:15:17;100698.72;;;21.25;55.99
79037;BME280;68434;59.896;30.474;2023-07-31T00:17:45;100700.59;;;21.25;55.95
79037;BME280;68434;59.896;30.474;2023-07-31T00:20:15;100707.41;;;21.22;56.13
79037;BME280;68434;59.896;30.474;2023-07-31T00:22:42;100698.31;;;21.22;56.27
79037;BME280;68434;59.896;30.474;2023-07-31T00:25:10;100704.88;;;21.21;56.03
79037;BME280;68434;59.896;30.474;2023-07-31T00:27:37;100698.75;;;21.19;56.16
79037;BME280;68434;59.896;30.474;2023-07-31T00:30:06;100708.09;;;21.18;56.22
79037;BME280;68434;59.896;30.474;2023-07-31T00:32:33;100700.88;;;21.17;56.29
79037;BME280;68434;59.896;30.474;2023-07-31T00:35:01;100712.97;;;21.16;56.58
79037;BME280;68434;59.896;30.474;2023-07-31T00:37:33;100709.59;;;21.14;56.48
79037;BME280;68434;59.896;30.474;2023-07-31T00:40:00;100707.69;;;21.14;56.45
79037;BME280;68434;59.896;30.474;2023-07-31T00:42:30;100706.84;;;21.14;56.52
79037;BME280;68434;59.896;30.474;2023-07-31T00:44:57;100714.50;;;21.12;56.41
79037;BME280;68434;59.896;30.474;2023-07-31T00:47:25;100719.13;;;21.11;56.58
79037;BME280;68434;59.896;30.474;2023-07-31T00:49:53;100725.72;;;21.10;56.47
79037;BME280;68434;59.896;30.474;2023-07-31T00:52:20;100723.19;;;21.09;56.70
79037;BME280;68434;59.896;30.474;2023-07-31T00:54:50;100727.00;;;21.08;56.59
79037;BME280;68434;59.896;30.474;2023-07-31T00:57:18;100722.56;;;21.07;56.63
79037;BME280;68434;59.896;30.474;2023-07-31T00:59:45;100729.13;;;21.06;56.58
79037;BME280;68434;59.896;30.474;2023-07-31T01:02:15;100727.44;;;21.05;56.68
79037;BME280;68434;59.896;30.474;2023-07-31T01:04:43;100722.16;;;21.03;56.75
79037;BME280;68434;59.896;30.474;2023-07-31T01:07:15;100721.34;;;21.03;56.82
79037;BME280;68434;59.896;30.474;2023-07-31T01:09:47;100725.97;;;21.02;56.74
79037;BME280;68434;59.896;30.474;2023-07-31T01:12:19;100720.69;;;21.01;56.84
79037;BME280;68434;59.896;30.474;2023-07-31T01:15:02;100721.56;;;21.01;57.05
79037;BME280;68434;59.896;30.474;2023-07-31T01:17:33;100717.94;;;21.01;56.74
79037;BME280;68434;59.896;30.474;2023-07-31T01:20:02;100722.59;;;21.00;57.06
79037;BME280;68434;59.896;30.474;2023-07-31T01:22:45;100722.00;;;20.98;57.08
79037;BME280;68434;59.896;30.474;2023-07-31T01:25:29;100723.91;;;20.98;56.84
79037;BME280;68434;59.896;30.474;2023-07-31T01:28:04;100719.47;;;20.97;56.90
79037;BME280;68434;59.896;30.474;2023-07-31T01:30:33;100713.97;;;20.97;57.00
79037;BME280;68434;59.896;30.474;2023-07-31T01:33:03;100710.59;;;20.95;57.15
79037;BME280;68434;59.896;30.474;2023-07-31T01:35:34;100717.75;;;20.96;57.09
79037;BME280;68434;59.896;30.474;2023-07-31T01:38:02;100708.88;;;20.94;56.83
79037;BME280;68434;59.896;30.474;2023-07-31T01:40:29;100709.72;;;20.94;56.98
79037;BME280;68434;59.896;30.474;2023-07-31T01:42:57;100708.88;;;20.94;56.86
79037;BME280;68434;59.896;30.474;2023-07-31T01:45:26;100704.44;;;20.93;56.82
79037;BME280;68434;59.896;30.474;2023-07-31T01:47:53;100711.84;;;20.92;56.82
79037;BME280;68434;59.896;30.474;2023-07-31T01:50:21;100706.34;;;20.92;56.75
79037;BME280;68434;59.896;30.474;2023-07-31T01:52:48;100704.44;;;20.93;56.94
79037;BME280;68434;59.896;30.474;2023-07-31T01:55:16;100705.28;;;20.93;56.82
79037;BME280;68434;59.896;30.474;2023-07-31T01:57:43;100705.28;;;20.93;56.72
79037;BME280;68434;59.896;30.474;2023-07-31T02:00:11;100707.19;;;20.93;56.59
79037;BME280;68434;59.896;30.474;2023-07-31T02:02:40;100703.84;;;20.91;56.62
79037;BME280;68434;59.896;30.474;2023-07-31T02:05:08;100708.25;;;20.92;56.63
79037;BME280;68434;59.896;30.474;2023-07-31T02:07:37;100707.63;;;20.90;56.58
79037;BME280;68434;59.896;30.474;2023-07-31T02:10:05;100698.56;;;20.89;56.81
79037;BME280;68434;59.896;30.474;2023-07-31T02:12:36;100704.28;;;20.88;56.88
79037;BME280;68434;59.896;30.474;2023-07-31T02:15:05;100710.59;;;20.88;56.52
79037;BME280;68434;59.896;30.474;2023-07-31T02:17:34;100708.06;;;20.87;56.60
79037;BME280;68434;59.896;30.474;2023-07-31T02:20:03;100705.53;;;20.85;56.65
79037;BME280;68434;59.896;30.474;2023-07-31T02:22:33;100693.72;;;20.85;56.78
79037;BME280;68434;59.896;30.474;2023-07-31T02:25:02;100697.50;;;20.84;56.85
79037;BME280;68434;59.896;30.474;2023-07-31T02:27:31;100702.19;;;20.83;56.99
79037;BME280;68434;59.896;30.474;2023-07-31T02:29:58;100696.91;;;20.82;56.96
79037;BME280;68434;59.896;30.474;2023-07-31T02:32:26;100697.97;;;20.81;57.06
79037;BME280;68434;59.896;30.474;2023-07-31T02:34:54;100702.63;;;20.80;56.83
79037;BME280;68434;59.896;30.474;2023-07-31T02:37:23;100704.53;;;20.80;56.88
79037;BME280;68434;59.896;30.474;2023-07-31T02:39:50;100701.78;;;20.80;56.96
79037;BME280;68434;59.896;30.474;2023-07-31T02:42:18;100703.69;;;20.79;56.93
79037;BME280;68434;59.896;30.474;2023-07-31T02:44:46;100700.09;;;20.79;57.06
79037;BME280;68434;59.896;30.474;2023-07-31T02:47:14;100706.66;;;20.78;57.08
79037;BME280;68434;59.896;30.474;2023-07-31T02:49:41;100702.22;;;20.77;56.97
79037;BME280;68434;59.896;30.474;2023-07-31T02:52:11;100702.44;;;20.75;57.06
79037;BME280;68434;59.896;30.474;2023-07-31T02:54:40;100701.59;;;20.75;57.27
79037;BME280;68434;59.896;30.474;2023-07-31T02:57:07;100702.44;;;20.75;57.33
79037;BME280;68434;59.896;30.474;2023-07-31T02:59:35;100696.09;;;20.75;57.15
79037;BME280;68434;59.896;30.474;2023-07-31T03:02:03;100696.94;;;20.75;57.36
79037;BME280;68434;59.896;30.474;2023-07-31T03:04:31;100691.44;;;20.75;57.40
79037;BME280;68434;59.896;30.474;2023-07-31T03:06:58;100694.84;;;20.77;57.35
79037;BME280;68434;59.896;30.474;2023-07-31T03:09:26;100692.91;;;20.78;57.23
79037;BME280;68434;59.896;30.474;2023-07-31T03:11:55;100698.41;;;20.78;57.26
79037;BME280;68434;59.896;30.474;2023-07-31T03:14:23;100700.94;;;20.79;57.00
79037;BME280;68434;59.896;30.474;2023-07-31T03:16:52;100689.72;;;20.81;56.97
79037;BME280;68434;59.896;30.474;2023-07-31T03:19:20;100684.84;;;20.83;57.01
79037;BME280;68434;59.896;30.474;2023-07-31T03:21:47;100688.22;;;20.85;56.78
79037;BME280;68434;59.896;30.474;2023-07-31T03:24:15;100681.66;;;20.86;56.93
79037;BME280;68434;59.896;30.474;2023-07-31T03:26:42;100682.50;;;20.86;56.75
79037;BME280;68434;59.896;30.474;2023-07-31T03:29:11;100688.81;;;20.87;56.79
79037;BME280;68434;59.896;30.474;2023-07-31T03:31:39;100680.34;;;20.88;56.49
79037;BME280;68434;59.896;30.474;2023-07-31T03:34:06;100682.06;;;20.89;56.81
79037;BME280;68434;59.896;30.474;2023-07-31T03:36:34;100689.44;;;20.89;56.60
79037;BME280;68434;59.896;30.474;2023-07-31T03:39:02;100685.41;;;20.91;56.53
79037;BME280;68434;59.896;30.474;2023-07-31T03:41:30;100687.09;;;20.92;56.62
79037;BME280;68434;59.896;30.474;2023-07-31T03:43:58;100687.94;;;20.93;56.23
79037;BME280;68434;59.896;30.474;2023-07-31T03:46:27;100681.38;;;20.94;56.14
79037;BME280;68434;59.896;30.474;2023-07-31T03:48:54;100677.59;;;20.95;55.92
79037;BME280;68434;59.896;30.474;2023-07-31T03:51:22;100668.25;;;20.96;56.13
79037;BME280;68434;59.896;30.474;2023-07-31T03:53:50;100674.38;;;20.98;55.88
79037;BME280;68434;59.896;30.474;2023-07-31T03:56:20;100672.25;;;21.00;55.99
79037;BME280;68434;59.896;30.474;2023-07-31T03:58:48;100674.78;;;21.01;55.69
79037;BME280;68434;59.896;30.474;2023-07-31T04:01:16;100681.97;;;21.02;55.79
79037;BME280;68434;59.896;30.474;2023-07-31T04:03:46;100678.13;;;21.03;55.73
79037;BME280;68434;59.896;30.474;2023-07-31T04:06:14;100678.75;;;21.05;55.76
79037;BME280;68434;59.896;30.474;2023-07-31T04:08:44;100675.78;;;21.07;55.54
79037;BME280;68434;59.896;30.474;2023-07-31T04:11:12;100670.06;;;21.08;55.82
79037;BME280;68434;59.896;30.474;2023-07-31T04:13:39;100671.91;;;21.14;55.83
79037;BME280;68434;59.896;30.474;2023-07-31T04:16:06;100667.63;;;21.18;55.53
79037;BME280;68434;59.896;30.474;2023-07-31T04:18:34;100666.38;;;21.21;55.32
79037;BME280;68434;59.896;30.474;2023-07-31T04:21:03;100662.31;;;21.23;55.35
79037;BME280;68434;59.896;30.474;2023-07-31T04:23:31;100658.03;;;21.27;54.85
79037;BME280;68434;59.896;30.474;2023-07-31T04:25:59;100660.31;;;21.30;54.78
79037;BME280;68434;59.896;30.474;2023-07-31T04:28:27;100668.13;;;21.33;54.96
79037;BME280;68434;59.896;30.474;2023-07-31T04:30:57;100667.91;;;21.35;54.83
79037;BME280;68434;59.896;30.474;2023-07-31T04:33:25;100666.63;;;21.37;54.83
79037;BME280;68434;59.896;30.474;2023-07-31T04:35:53;100660.03;;;21.38;54.96
79037;BME280;68434;59.896;30.474;2023-07-31T04:38:22;100669.75;;;21.41;55.05
79037;BME280;68434;59.896;30.474;2023-07-31T04:40:50;100664.63;;;21.44;55.06
79037;BME280;68434;59.896;30.474;2023-07-31T04:43:18;100664.81;;;21.49;54.97
79037;BME280;68434;59.896;30.474;2023-07-31T04:45:46;100663.28;;;21.53;54.76
79037;BME280;68434;59.896;30.474;2023-07-31T04:48:14;100667.47;;;21.56;54.91
79037;BME280;68434;59.896;30.474;2023-07-31T04:50:42;100662.59;;;21.58;55.16
79037;BME280;68434;59.896;30.474;2023-07-31T04:53:09;100663.22;;;21.60;55.03
79037;BME280;68434;59.896;30.474;2023-07-31T04:55:38;100652.56;;;21.63;55.17
79037;BME280;68434;59.896;30.474;2023-07-31T04:58:05;100655.47;;;21.68;55.17
79037;BME280;68434;59.896;30.474;2023-07-31T05:00:33;100649.94;;;21.75;54.90
79037;BME280;68434;59.896;30.474;2023-07-31T05:03:00;100651.91;;;21.86;54.79
79037;BME280;68434;59.896;30.474;2023-07-31T05:05:28;100649.06;;;21.92;54.71
79037;BME280;68434;59.896;30.474;2023-07-31T05:07:56;100652.00;;;21.97;54.43
79037;BME280;68434;59.896;30.474;2023-07-31T05:10:23;100648.53;;;22.02;54.32
79037;BME280;68434;59.896;30.474;2023-07-31T05:12:52;100646.75;;;22.07;54.22
79037;BME280;68434;59.896;30.474;2023-07-31T05:15:20;100653.47;;;22.11;53.96
79037;BME280;68434;59.896;30.474;2023-07-31T05:17:47;100643.94;;;22.14;54.13
79037;BME280;68434;59.896;30.474;2023-07-31T05:20:16;100645.38;;;22.16;53.94
79037;BME280;68434;59.896;30.474;2023-07-31T05:22:43;100641.91;;;22.21;53.79
79037;BME280;68434;59.896;30.474;2023-07-31T05:25:11;100648.88;;;22.23;53.68
79037;BME280;68434;59.896;30.474;2023-07-31T05:27:39;100643.97;;;22.25;53.75
79037;BME280;68434;59.896;30.474;2023-07-31T05:30:08;100649.88;;;22.29;53.53
79037;BME280;68434;59.896;30.474;2023-07-31T05:32:36;100652.75;;;22.34;53.61
79037;BME280;68434;59.896;30.474;2023-07-31T05:35:04;100640.19;;;22.38;53.56
79037;BME280;68434;59.896;30.474;2023-07-31T05:37:32;100639.13;;;22.39;53.41
79037;BME280;68434;59.896;30.474;2023-07-31T05:42:27;100643.69;;;22.45;53.36
79037;BME280;68434;59.896;30.474;2023-07-31T05:44:54;100645.13;;;22.48;53.24
79037;BME280;68434;59.896;30.474;2023-07-31T05:47:24;100638.13;;;22.52;53.06
79037;BME280;68434;59.896;30.474;2023-07-31T05:49:51;100648.69;;;22.55;53.10
79037;BME280;68434;59.896;30.474;2023-07-31T05:52:19;100647.97;;;22.59;53.06
79037;BME280;68434;59.896;30.474;2023-07-31T05:54:47;100643.28;;;22.60;53.06
79037;BME280;68434;59.896;30.474;2023-07-31T05:57:14;100634.78;;;22.61;52.91
79037;BME280;68434;59.896;30.474;2023-07-31T05:59:42;100633.47;;;22.64;52.91
79037;BME280;68434;59.896;30.474;2023-07-31T06:02:10;100636.59;;;22.67;52.79
79037;BME280;68434;59.896;30.474;2023-07-31T06:04:38;100639.09;;;22.69;52.62
79037;BME280;68434;59.896;30.474;2023-07-31T06:07:06;100634.81;;;22.73;52.68
79037;BME280;68434;59.896;30.474;2023-07-31T06:09:34;100636.00;;;22.77;52.60
79037;BME280;68434;59.896;30.474;2023-07-31T06:12:01;100647.19;;;22.82;52.63
79037;BME280;68434;59.896;30.474;2023-07-31T06:14:29;100645.63;;;22.86;52.40
79037;BME280;68434;59.896;30.474;2023-07-31T06:16:56;100639.41;;;22.90;52.45
79037;BME280;68434;59.896;30.474;2023-07-31T06:19:24;100636.78;;;22.95;52.38
79037;BME280;68434;59.896;30.474;2023-07-31T06:21:53;100646.50;;;22.98;52.03
79037;BME280;68434;59.896;30.474;2023-07-31T06:24:20;100640.88;;;23.04;51.87
79037;BME280;68434;59.896;30.474;2023-07-31T06:26:48;100640.38;;;23.19;51.61
79037;BME280;68434;59.896;30.474;2023-07-31T06:29:16;100637.66;;;23.30;51.44
79037;BME280;68434;59.896;30.474;2023-07-31T06:31:44;100641.13;;;23.49;51.04
79037;BME280;68434;59.896;30.474;2023-07-31T06:34:11;100643.75;;;23.55;50.77
79037;BME280;68434;59.896;30.474;2023-07-31T06:36:39;100646.50;;;23.55;50.50
79037;BME280;68434;59.896;30.474;2023-07-31T06:39:08;100640.03;;;23.50;50.67
79037;BME280;68434;59.896;30.474;2023-07-31T06:41:36;100641.38;;;23.47;50.32
79037;BME280;68434;59.896;30.474;2023-07-31T06:44:06;100645.19;;;23.46;50.29
79037;BME280;68434;59.896;30.474;2023-07-31T06:46:33;100637.16;;;23.45;50.18
79037;BME280;68434;59.896;30.474;2023-07-31T06:49:01;100643.78;;;23.44;50.39
79037;BME280;68434;59.896;30.474;2023-07-31T06:51:28;100638.47;;;23.42;50.00
79037;BME280;68434;59.896;30.474;2023-07-31T06:53:57;100645.91;;;23.42;49.98
79037;BME280;68434;59.896;30.474;2023-07-31T06:56:26;100637.88;;;23.40;50.02
79037;BME280;68434;59.896;30.474;2023-07-31T06:58:54;100635.34;;;23.39;49.77
79037;BME280;68434;59.896;30.474;2023-07-31T07:01:22;100637.06;;;23.40;49.43
79037;BME280;68434;59.896;30.474;2023-07-31T07:03:50;100631.53;;;23.40;49.47
79037;BME280;68434;59.896;30.474;2023-07-31T07:06:18;100636.22;;;23.39;49.42
79037;BME280;68434;59.896;30.474;2023-07-31T07:08:49;100635.13;;;23.40;49.00
79037;BME280;68434;59.896;30.474;2023-07-31T07:11:17;100628.78;;;23.40;49.29
79037;BME280;68434;59.896;30.474;2023-07-31T07:13:46;100630.69;;;23.39;49.09
79037;BME280;68434;59.896;30.474;2023-07-31T07:16:13;100634.28;;;23.40;49.07
79037;BME280;68434;59.896;30.474;2023-07-31T07:18:41;100637.06;;;23.40;48.68
79037;BME280;68434;59.896;30.474;2023-07-31T07:21:08;100640.63;;;23.40;48.70
79037;BME280;68434;59.896;30.474;2023-07-31T07:23:40;100643.16;;;23.42;48.97
79037;BME280;68434;59.896;30.474;2023-07-31T07:26:08;100637.63;;;23.42;48.84
79037;BME280;68434;59.896;30.474;2023-07-31T07:28:35;100641.25;;;23.42;48.47
79037;BME280;68434;59.896;30.474;2023-07-31T07:31:04;100641.25;;;23.42;48.28
79037;BME280;68434;59.896;30.474;2023-07-31T07:33:32;100643.78;;;23.44;48.17
79037;BME280;68434;59.896;30.474;2023-07-31T07:36:00;100639.34;;;23.43;48.37
79037;BME280;68434;59.896;30.474;2023-07-31T07:38:27;100640.16;;;23.55;48.39
79037;BME280;68434;59.896;30.474;2023-07-31T07:40:55;100639.19;;;23.49;48.06
79037;BME280;68434;59.896;30.474;2023-07-31T07:43:22;100636.91;;;23.46;48.36
79037;BME280;68434;59.896;30.474;2023-07-31T07:45:50;100637.75;;;23.47;47.84
79037;BME280;68434;59.896;30.474;2023-07-31T07:48:19;100645.19;;;23.46;48.21
79037;BME280;68434;59.896;30.474;2023-07-31T07:50:47;100642.19;;;23.48;48.20
79037;BME280;68434;59.896;30.474;2023-07-31T07:53:16;100642.19;;;23.48;48.23
79037;BME280;68434;59.896;30.474;2023-07-31T07:55:43;100641.13;;;23.49;48.25
79037;BME280;68434;59.896;30.474;2023-07-31T07:58:11;100644.72;;;23.49;48.11
79037;BME280;68434;59.896;30.474;2023-07-31T08:00:39;100647.22;;;23.51;47.71
79037;BME280;68434;59.896;30.474;2023-07-31T08:03:06;100642.81;;;23.50;48.30
79037;BME280;68434;59.896;30.474;2023-07-31T08:05:35;100644.47;;;23.51;48.19
79037;BME280;68434;59.896;30.474;2023-07-31T08:08:03;100645.09;;;23.53;48.37
79037;BME280;68434;59.896;30.474;2023-07-31T08:10:31;100642.31;;;23.53;48.34
79037;BME280;68434;59.896;30.474;2023-07-31T08:12:58;100647.59;;;23.54;47.89
79037;BME280;68434;59.896;30.474;2023-07-31T08:15:26;100646.28;;;23.57;47.72
79037;BME280;68434;59.896;30.474;2023-07-31T08:17:53;100647.97;;;23.58;48.03
79037;BME280;68434;59.896;30.474;2023-07-31T08:20:21;100650.25;;;23.61;47.49
79037;BME280;68434;59.896;30.474;2023-07-31T08:22:50;100644.47;;;23.62;47.70
79037;BME280;68434;59.896;30.474;2023-07-31T08:25:19;100648.66;;;23.65;47.57
79037;BME280;68434;59.896;30.474;2023-07-31T08:27:46;100648.66;;;23.65;47.03
79037;BME280;68434;59.896;30.474;2023-07-31T08:30:14;100646.50;;;23.67;47.14
79037;BME280;68434;59.896;30.474;2023-07-31T08:32:42;100643.50;;;23.68;46.87
79037;BME280;68434;59.896;30.474;2023-07-31T08:35:09;100642.41;;;23.69;46.60
79037;BME280;68434;59.896;30.474;2023-07-31T08:37:37;100643.28;;;23.70;46.82
79037;BME280;68434;59.896;30.474;2023-07-31T08:40:07;100643.22;;;23.81;46.70
79037;BME280;68434;59.896;30.474;2023-07-31T08:42:43;100649.97;;;23.74;46.07
79037;BME280;68434;59.896;30.474;2023-07-31T08:45:14;100651.31;;;23.71;45.83
79037;BME280;68434;59.896;30.474;2023-07-31T08:47:44;100649.38;;;23.72;45.77
79037;BME280;68434;59.896;30.474;2023-07-31T08:50:13;100643.84;;;23.72;46.05
79037;BME280;68434;59.896;30.474;2023-07-31T08:52:41;100647.47;;;23.72;45.69
79037;BME280;68434;59.896;30.474;2023-07-31T08:55:10;100648.88;;;23.75;45.04
79037;BME280;68434;59.896;30.474;2023-07-31T08:57:38;100651.66;;;23.75;45.44
79037;BME280;68434;59.896;30.474;2023-07-31T09:00:08;100650.81;;;23.74;45.40
79037;BME280;68434;59.896;30.474;2023-07-31T09:02:39;100651.66;;;23.75;45.36
79037;BME280;68434;59.896;30.474;2023-07-31T09:05:09;100657.78;;;23.77;45.23
79037;BME280;68434;59.896;30.474;2023-07-31T09:07:38;100649.25;;;23.78;44.76
79037;BME280;68434;59.896;30.474;2023-07-31T09:10:07;100657.28;;;23.80;45.11
79037;BME280;68434;59.896;30.474;2023-07-31T09:12:35;100647.53;;;23.89;44.95
79037;BME280;68434;59.896;30.474;2023-07-31T09:15:04;100644.66;;;23.84;45.09
79037;BME280;68434;59.896;30.474;2023-07-31T09:17:33;100651.03;;;23.84;45.28
79037;BME280;68434;59.896;30.474;2023-07-31T09:20:13;100642.25;;;23.87;44.73
79037;BME280;68434;59.896;30.474;2023-07-31T09:22:42;100652.81;;;23.90;44.71
79037;BME280;68434;59.896;30.474;2023-07-31T09:25:17;100648.97;;;23.91;44.65
79037;BME280;68434;59.896;30.474;2023-07-31T09:27:49;100645.97;;;23.93;44.70
79037;BME280;68434;59.896;30.474;2023-07-31T09:30:17;100646.81;;;23.93;44.71
79037;BME280;68434;59.896;30.474;2023-07-31T09:32:45;100644.03;;;23.93;44.87
79037;BME280;68434;59.896;30.474;2023-07-31T09:35:16;100650.44;;;23.94;44.46
79037;BME280;68434;59.896;30.474;2023-07-31T09:37:49;100647.44;;;23.95;44.99
79037;BME280;68434;59.896;30.474;2023-07-31T09:40:27;100646.34;;;23.96;44.60
79037;BME280;68434;59.896;30.474;2023-07-31T09:42:58;100653.78;;;23.96;44.75
79037;BME280;68434;59.896;30.474;2023-07-31T09:45:27;100649.97;;;23.97;44.69
79037;BME280;68434;59.896;30.474;2023-07-31T09:47:55;100647.22;;;23.97;44.77
79037;BME280;68434;59.896;30.474;2023-07-31T09:50:24;100644.69;;;23.95;44.52
79037;BME280;68434;59.896;30.474;2023-07-31T09:52:52;100636.16;;;23.97;44.64
79037;BME280;68434;59.896;30.474;2023-07-31T09:55:20;100645.25;;;23.97;44.96
79037;BME280;68434;59.896;30.474;2023-07-31T09:57:49;100638.91;;;23.97;44.98
79037;BME280;68434;59.896;30.474;2023-07-31T10:00:19;100640.59;;;23.98;44.82
79037;BME280;68434;59.896;30.474;2023-07-31T10:02:49;100629.03;;;24.01;45.10
79037;BME280;68434;59.896;30.474;2023-07-31T10:05:19;100626.88;;;24.03;44.58
79037;BME280;68434;59.896;30.474;2023-07-31T10:07:51;100632.72;;;24.07;45.07
79037;BME280;68434;59.896;30.474;2023-07-31T10:10:21;100625.03;;;24.09;44.33
79037;BME280;68434;59.896;30.474;2023-07-31T10:12:49;100632.00;;;24.11;44.73
79037;BME280;68434;59.896;30.474;2023-07-31T10:15:19;100624.56;;;24.12;44.00
79037;BME280;68434;59.896;30.474;2023-07-31T10:17:48;100632.84;;;24.12;44.20
79037;BME280;68434;59.896;30.474;2023-07-31T10:20:16;100630.94;;;24.12;44.48
79037;BME280;68434;59.896;30.474;2023-07-31T10:22:44;100627.06;;;24.13;44.78
79037;BME280;68434;59.896;30.474;2023-07-31T10:25:13;100624.31;;;24.13;44.74
79037;BME280;68434;59.896;30.474;2023-07-31T10:27:41;100627.91;;;24.14;44.55
79037;BME280;68434;59.896;30.474;2023-07-31T10:30:12;100622.16;;;24.15;43.94
79037;BME280;68434;59.896;30.474;2023-07-31T10:32:44;100630.19;;;24.17;44.10
79037;BME280;68434;59.896;30.474;2023-07-31T10:35:12;100623.56;;;24.18;43.62
79037;BME280;68434;59.896;30.474;2023-07-31T10:37:42;100618.03;;;24.18;43.72
79037;BME280;68434;59.896;30.474;2023-07-31T10:40:11;100616.69;;;24.20;43.67
79037;BME280;68434;59.896;30.474;2023-07-31T10:42:46;100617.28;;;24.22;43.30
79037;BME280;68434;59.896;30.474;2023-07-31T10:45:24;100618.72;;;24.25;43.40
79037;BME280;68434;59.896;30.474;2023-07-31T10:47:59;100608.50;;;24.25;44.03
79037;BME280;68434;59.896;30.474;2023-07-31T10:50:29;100611.03;;;24.27;44.39
79037;BME280;68434;59.896;30.474;2023-07-31T10:52:59;100612.44;;;24.29;45.14
79037;BME280;68434;59.896;30.474;2023-07-31T10:55:29;100606.09;;;24.29;45.06
79037;BME280;68434;59.896;30.474;2023-07-31T10:58:06;100614.16;;;24.30;44.44
79037;BME280;68434;59.896;30.474;2023-07-31T11:00:36;100602.22;;;24.30;44.19
79037;BME280;68434;59.896;30.474;2023-07-31T11:03:06;100602.22;;;24.30;44.34
79037;BME280;68434;59.896;30.474;2023-07-31T11:05:45;100604.41;;;24.28;44.28
79037;BME280;68434;59.896;30.474;2023-07-31T11:08:14;100605.50;;;24.27;44.60
79037;BME280;68434;59.896;30.474;2023-07-31T11:10:43;100602.72;;;24.27;44.30
79037;BME280;68434;59.896;30.474;2023-07-31T11:13:11;100595.28;;;24.27;44.73
79037;BME280;68434;59.896;30.474;2023-07-31T11:15:39;100596.47;;;24.31;44.32
79037;BME280;68434;59.896;30.474;2023-07-31T11:18:08;100594.28;;;24.33;44.47
79037;BME280;68434;59.896;30.474;2023-07-31T11:20:38;100595.72;;;24.36;44.32
79037;BME280;68434;59.896;30.474;2023-07-31T11:23:07;100597.38;;;24.37;44.12
79037;BME280;68434;59.896;30.474;2023-07-31T11:25:36;100598.22;;;24.37;44.05
79037;BME280;68434;59.896;30.474;2023-07-31T11:28:18;100604.47;;;24.16;44.47
79037;BME280;68434;59.896;30.474;2023-07-31T11:30:46;100591.53;;;24.33;43.82
79037;BME280;68434;59.896;30.474;2023-07-31T11:33:14;100589.69;;;24.39;43.65
79037;BME280;68434;59.896;30.474;2023-07-31T11:35:42;100588.34;;;24.41;43.39
79037;BME280;68434;59.896;30.474;2023-07-31T11:38:12;100587.84;;;24.44;43.42
79037;BME280;68434;59.896;30.474;2023-07-31T11:40:43;100587.59;;;24.46;43.25
79037;BME280;68434;59.896;30.474;2023-07-31T11:43:10;100591.81;;;24.48;44.00
79037;BME280;68434;59.896;30.474;2023-07-31T11:45:45;100586.03;;;24.50;43.99
79037;BME280;68434;59.896;30.474;2023-07-31T11:48:19;100589.59;;;24.50;44.30
79037;BME280;68434;59.896;30.474;2023-07-31T11:50:48;100585.78;;;24.51;44.58
79037;BME280;68434;59.896;30.474;2023-07-31T11:53:19;100583.00;;;24.51;44.96
79037;BME280;68434;59.896;30.474;2023-07-31T11:55:48;100581.31;;;24.50;44.48
79037;BME280;68434;59.896;30.474;2023-07-31T11:58:16;100581.91;;;24.52;44.11
79037;BME280;68434;59.896;30.474;2023-07-31T12:00:46;100574.22;;;24.54;44.73
79037;BME280;68434;59.896;30.474;2023-07-31T12:03:14;100563.97;;;24.55;44.46
79037;BME280;68434;59.896;30.474;2023-07-31T12:05:44;100565.66;;;24.56;43.75
79037;BME280;68434;59.896;30.474;2023-07-31T12:08:14;100570.09;;;24.57;43.73
79037;BME280;68434;59.896;30.474;2023-07-31T12:10:42;100562.59;;;24.69;43.29
79037;BME280;68434;59.896;30.474;2023-07-31T12:13:12;100568.50;;;24.61;42.96
79037;BME280;68434;59.896;30.474;2023-07-31T12:15:48;100568.50;;;24.61;43.24
79037;BME280;68434;59.896;30.474;2023-07-31T12:18:19;100574.63;;;24.63;43.37
79037;BME280;68434;59.896;30.474;2023-07-31T12:20:54;100573.66;;;24.69;43.40
79037;BME280;68434;59.896;30.474;2023-07-31T12:23:24;100570.13;;;24.73;43.74
79037;BME280;68434;59.896;30.474;2023-07-31T12:26:01;100572.41;;;24.76;43.76
79037;BME280;68434;59.896;30.474;2023-07-31T12:28:29;100568.88;;;24.81;43.46
79037;BME280;68434;59.896;30.474;2023-07-31T12:30:59;100566.00;;;24.92;43.42
79037;BME280;68434;59.896;30.474;2023-07-31T12:33:31;100572.31;;;24.88;43.22
79037;BME280;68434;59.896;30.474;2023-07-31T12:36:02;100565.44;;;24.90;42.98
79037;BME280;68434;59.896;30.474;2023-07-31T12:38:30;100554.69;;;24.94;42.92
79037;BME280;68434;59.896;30.474;2023-07-31T12:40:59;100563.34;;;24.97;42.81
79037;BME280;68434;59.896;30.474;2023-07-31T12:43:26;100555.03;;;24.97;42.62
79037;BME280;68434;59.896;30.474;2023-07-31T12:45:55;100555.88;;;24.98;42.59
79037;BME280;68434;59.896;30.474;2023-07-31T12:48:24;100546.22;;;25.00;42.42
79037;BME280;68434;59.896;30.474;2023-07-31T12:50:52;100550.66;;;25.01;42.56